sensor_id;sensor_type;location;lat;lon;timestamp;temperature;humidity
14122;DHT22;7139;48.114;11.442;2023-06-26T00:01:51;17.80;94.10
14122;DHT22;7139;48.114;11.442;2023-06-26T00:04:18;17.70;94.10
14122;DHT22;7139;48.114;11.442;2023-06-26T00:06:45;17.60;93.90
14122;DHT22;7139;48.114;11.442;2023-06-26T00:09:12;17.60;93.70
14122;DHT22;7139;48.114;11.442;2023-06-26T00:11:40;17.60;93.60
14122;DHT22;7139;48.114;11.442;2023-06-26T00:14:06;17.50;93.60
14122;DHT22;7139;48.114;11.442;2023-06-26T00:16:33;17.50;93.60
14122;DHT22;7139;48.114;11.442;2023-06-26T00:19:00;17.50;93.60
14122;DHT22;7139;48.114;11.442;2023-06-26T00:21:27;17.50;93.80
14122;DHT22;7139;48.114;11.442;2023-06-26T00:23:53;17.40;93.90
14122;DHT22;7139;48.114;11.442;2023-06-26T00:26:20;17.50;94.00
14122;DHT22;7139;48.114;11.442;2023-06-26T00:28:48;17.50;94.00
14122;DHT22;7139;48.114;11.442;2023-06-26T00:31:15;17.40;94.20
14122;DHT22;7139;48.114;11.442;2023-06-26T00:33:42;17.40;94.40
14122;DHT22;7139;48.114;11.442;2023-06-26T00:36:09;17.30;94.40
14122;DHT22;7139;48.114;11.442;2023-06-26T00:38:36;17.30;94.70
14122;DHT22;7139;48.114;11.442;2023-06-26T00:41:03;17.30;94.90
14122;DHT22;7139;48.114;11.442;2023-06-26T00:43:30;17.20;94.80
14122;DHT22;7139;48.114;11.442;2023-06-26T00:45:58;17.10;94.80
14122;DHT22;7139;48.114;11.442;2023-06-26T00:48:25;17.10;94.90
14122;DHT22;7139;48.114;11.442;2023-06-26T00:50:52;17.10;94.90
14122;DHT22;7139;48.114;11.442;2023-06-26T00:53:19;17.00;94.80
14122;DHT22;7139;48.114;11.442;2023-06-26T00:55:46;17.00;94.90
14122;DHT22;7139;48.114;11.442;2023-06-26T00:58:13;17.00;95.00
14122;DHT22;7139;48.114;11.442;2023-06-26T01:00:40;16.90;94.90
14122;DHT22;7139;48.114;11.442;2023-06-26T01:03:09;16.90;95.00
14122;DHT22;7139;48.114;11.442;2023-06-26T01:05:36;17.00;95.40
14122;DHT22;7139;48.114;11.442;2023-06-26T01:08:04;17.00;95.00
14122;DHT22;7139;48.114;11.442;2023-06-26T01:10:31;16.90;95.20
14122;DHT22;7139;48.114;11.442;2023-06-26T01:12:58;16.90;95.30
14122;DHT22;7139;48.114;11.442;2023-06-26T01:15:24;16.90;95.20
14122;DHT22;7139;48.114;11.442;2023-06-26T01:17:51;16.80;95.20
14122;DHT22;7139;48.114;11.442;2023-06-26T01:20:20;16.80;95.20
14122;DHT22;7139;48.114;11.442;2023-06-26T01:22:55;16.80;95.10
14122;DHT22;7139;48.114;11.442;2023-06-26T01:25:31;16.70;95.10
14122;DHT22;7139;48.114;11.442;2023-06-26T01:28:06;16.70;95.00
14122;DHT22;7139;48.114;11.442;2023-06-26T01:30:34;16.70;95.00
14122;DHT22;7139;48.114;11.442;2023-06-26T01:33:02;16.70;95.10
14122;DHT22;7139;48.114;11.442;2023-06-26T01:35:29;16.60;95.00
14122;DHT22;7139;48.114;11.442;2023-06-26T01:38:11;16.60;95.00
14122;DHT22;7139;48.114;11.442;2023-06-26T01:40:38;16.60;94.80
14122;DHT22;7139;48.114;11.442;2023-06-26T01:43:14;16.60;94.80
14122;DHT22;7139;48.114;11.442;2023-06-26T01:45:42;16.60;95.20
14122;DHT22;7139;48.114;11.442;2023-06-26T01:48:11;16.60;95.10
14122;DHT22;7139;48.114;11.442;2023-06-26T01:50:40;16.50;95.20
14122;DHT22;7139;48.114;11.442;2023-06-26T01:53:11;16.50;94.90
14122;DHT22;7139;48.114;11.442;2023-06-26T01:55:44;16.50;95.00
14122;DHT22;7139;48.114;11.442;2023-06-26T01:58:14;16.50;95.00
14122;DHT22;7139;48.114;11.442;2023-06-26T02:00:42;16.40;95.10
14122;DHT22;7139;48.114;11.442;2023-06-26T02:03:09;16.40;95.00
14122;DHT22;7139;48.114;11.442;2023-06-26T02:05:36;16.40;95.20
14122;DHT22;7139;48.114;11.442;2023-06-26T02:08:03;16.40;95.20
14122;DHT22;7139;48.114;11.442;2023-06-26T02:10:30;16.40;95.20
14122;DHT22;7139;48.114;11.442;2023-06-26T02:12:57;16.40;95.20
14122;DHT22;7139;48.114;11.442;2023-06-26T02:15:25;16.40;95.10
14122;DHT22;7139;48.114;11.442;2023-06-26T02:17:51;16.30;95.30
14122;DHT22;7139;48.114;11.442;2023-06-26T02:20:18;16.30;95.30
14122;DHT22;7139;48.114;11.442;2023-06-26T02:22:45;16.30;95.30
14122;DHT22;7139;48.114;11.442;2023-06-26T02:25:12;16.30;95.40
14122;DHT22;7139;48.114;11.442;2023-06-26T02:27:38;16.30;95.60
14122;DHT22;7139;48.114;11.442;2023-06-26T02:30:07;16.30;95.40
14122;DHT22;7139;48.114;11.442;2023-06-26T02:32:35;16.30;95.40
14122;DHT22;7139;48.114;11.442;2023-06-26T02:35:02;16.30;95.60
14122;DHT22;7139;48.114;11.442;2023-06-26T02:37:29;16.30;95.90
14122;DHT22;7139;48.114;11.442;2023-06-26T02:39:56;16.30;96.00
14122;DHT22;7139;48.114;11.442;2023-06-26T02:42:23;16.30;95.90
14122;DHT22;7139;48.114;11.442;2023-06-26T02:44:50;16.20;95.90
14122;DHT22;7139;48.114;11.442;2023-06-26T02:47:17;16.20;95.90
14122;DHT22;7139;48.114;11.442;2023-06-26T02:49:45;16.20;95.80
14122;DHT22;7139;48.114;11.442;2023-06-26T02:52:12;16.20;95.50
14122;DHT22;7139;48.114;11.442;2023-06-26T02:54:38;16.20;95.70
14122;DHT22;7139;48.114;11.442;2023-06-26T02:57:05;16.20;95.60
14122;DHT22;7139;48.114;11.442;2023-06-26T02:59:32;16.20;95.80
14122;DHT22;7139;48.114;11.442;2023-06-26T03:01:59;16.10;95.80
14122;DHT22;7139;48.114;11.442;2023-06-26T03:04:26;16.20;96.20
14122;DHT22;7139;48.114;11.442;2023-06-26T03:06:54;16.10;96.80
14122;DHT22;7139;48.114;11.442;2023-06-26T03:09:20;16.10;96.80
14122;DHT22;7139;48.114;11.442;2023-06-26T03:11:47;16.10;96.60
14122;DHT22;7139;48.114;11.442;2023-06-26T03:14:14;16.10;96.40
14122;DHT22;7139;48.114;11.442;2023-06-26T03:16:41;16.00;96.40
14122;DHT22;7139;48.114;11.442;2023-06-26T03:19:07;16.00;96.40
14122;DHT22;7139;48.114;11.442;2023-06-26T03:21:34;16.00;96.50
14122;DHT22;7139;48.114;11.442;2023-06-26T03:24:02;16.00;96.60
14122;DHT22;7139;48.114;11.442;2023-06-26T03:26:29;16.00;96.70
14122;DHT22;7139;48.114;11.442;2023-06-26T03:28:56;16.00;96.70
14122;DHT22;7139;48.114;11.442;2023-06-26T03:31:23;16.00;96.70
14122;DHT22;7139;48.114;11.442;2023-06-26T03:33:50;15.90;96.70
14122;DHT22;7139;48.114;11.442;2023-06-26T03:36:16;15.90;96.80
14122;DHT22;7139;48.114;11.442;2023-06-26T03:38:43;15.90;96.90
14122;DHT22;7139;48.114;11.442;2023-06-26T03:41:11;15.90;97.00
14122;DHT22;7139;48.114;11.442;2023-06-26T03:43:38;15.90;97.00
14122;DHT22;7139;48.114;11.442;2023-06-26T03:46:05;15.90;97.20
14122;DHT22;7139;48.114;11.442;2023-06-26T03:48:31;15.90;97.30
14122;DHT22;7139;48.114;11.442;2023-06-26T03:50:58;15.90;97.30
14122;DHT22;7139;48.114;11.442;2023-06-26T03:53:27;15.90;97.30
14122;DHT22;7139;48.114;11.442;2023-06-26T03:55:54;15.90;97.40
14122;DHT22;7139;48.114;11.442;2023-06-26T03:58:22;15.90;97.40
14122;DHT22;7139;48.114;11.442;2023-06-26T04:00:50;15.90;97.50
14122;DHT22;7139;48.114;11.442;2023-06-26T04:03:17;15.90;97.60
14122;DHT22;7139;48.114;11.442;2023-06-26T04:05:44;15.90;97.70
14122;DHT22;7139;48.114;11.442;2023-06-26T04:08:10;15.90;97.70
14122;DHT22;7139;48.114;11.442;2023-06-26T04:10:37;15.90;97.80
14122;DHT22;7139;48.114;11.442;2023-06-26T04:13:04;15.90;97.80
14122;DHT22;7139;48.114;11.442;2023-06-26T04:15:32;15.90;97.80
14122;DHT22;7139;48.114;11.442;2023-06-26T04:17:59;15.90;98.00
14122;DHT22;7139;48.114;11.442;2023-06-26T04:20:25;15.90;98.00
14122;DHT22;7139;48.114;11.442;2023-06-26T04:22:52;15.90;98.10
14122;DHT22;7139;48.114;11.442;2023-06-26T04:25:19;15.90;98.20
14122;DHT22;7139;48.114;11.442;2023-06-26T04:27:46;15.90;98.10
14122;DHT22;7139;48.114;11.442;2023-06-26T04:30:13;16.00;98.20
14122;DHT22;7139;48.114;11.442;2023-06-26T04:32:41;16.00;98.20
14122;DHT22;7139;48.114;11.442;2023-06-26T04:35:08;16.00;98.30
14122;DHT22;7139;48.114;11.442;2023-06-26T04:37:35;16.00;98.50
14122;DHT22;7139;48.114;11.442;2023-06-26T04:40:02;16.00;98.60
14122;DHT22;7139;48.114;11.442;2023-06-26T04:42:30;16.10;98.80
14122;DHT22;7139;48.114;11.442;2023-06-26T04:44:57;16.10;98.90
14122;DHT22;7139;48.114;11.442;2023-06-26T04:47:24;16.20;99.00
14122;DHT22;7139;48.114;11.442;2023-06-26T04:49:52;16.20;99.10
14122;DHT22;7139;48.114;11.442;2023-06-26T04:52:20;16.20;99.20
14122;DHT22;7139;48.114;11.442;2023-06-26T04:54:47;16.30;99.50
14122;DHT22;7139;48.114;11.442;2023-06-26T04:57:14;16.30;99.60
14122;DHT22;7139;48.114;11.442;2023-06-26T04:59:42;16.40;99.90
14122;DHT22;7139;48.114;11.442;2023-06-26T05:02:17;16.40;99.90
14122;DHT22;7139;48.114;11.442;2023-06-26T05:04:46;16.50;99.90
14122;DHT22;7139;48.114;11.442;2023-06-26T05:07:15;16.50;99.90
14122;DHT22;7139;48.114;11.442;2023-06-26T05:09:41;16.60;99.90
14122;DHT22;7139;48.114;11.442;2023-06-26T05:12:08;16.60;99.90
14122;DHT22;7139;48.114;11.442;2023-06-26T05:14:35;16.70;99.90
14122;DHT22;7139;48.114;11.442;2023-06-26T05:17:02;16.80;99.90
14122;DHT22;7139;48.114;11.442;2023-06-26T05:19:28;16.80;99.90
14122;DHT22;7139;48.114;11.442;2023-06-26T05:21:55;16.90;99.90
14122;DHT22;7139;48.114;11.442;2023-06-26T05:24:24;17.00;99.90
14122;DHT22;7139;48.114;11.442;2023-06-26T05:26:52;17.00;99.90
14122;DHT22;7139;48.114;11.442;2023-06-26T05:29:19;17.10;99.90
14122;DHT22;7139;48.114;11.442;2023-06-26T05:31:47;17.20;99.90
14122;DHT22;7139;48.114;11.442;2023-06-26T05:34:17;17.30;99.90
14122;DHT22;7139;48.114;11.442;2023-06-26T05:36:48;17.30;99.90
14122;DHT22;7139;48.114;11.442;2023-06-26T05:39:17;17.40;99.90
14122;DHT22;7139;48.114;11.442;2023-06-26T05:41:46;17.50;99.90
14122;DHT22;7139;48.114;11.442;2023-06-26T05:44:13;17.60;99.90
14122;DHT22;7139;48.114;11.442;2023-06-26T05:46:39;17.60;99.90
14122;DHT22;7139;48.114;11.442;2023-06-26T05:49:06;17.80;99.90
14122;DHT22;7139;48.114;11.442;2023-06-26T05:51:34;17.90;99.90
14122;DHT22;7139;48.114;11.442;2023-06-26T05:54:01;18.00;99.70
14122;DHT22;7139;48.114;11.442;2023-06-26T05:56:28;18.10;99.70
14122;DHT22;7139;48.114;11.442;2023-06-26T05:58:57;18.10;99.30
14122;DHT22;7139;48.114;11.442;2023-06-26T06:01:24;18.30;98.80
14122;DHT22;7139;48.114;11.442;2023-06-26T06:03:51;18.40;98.30
14122;DHT22;7139;48.114;11.442;2023-06-26T06:06:18;18.40;98.30
14122;DHT22;7139;48.114;11.442;2023-06-26T06:08:45;18.60;97.80
14122;DHT22;7139;48.114;11.442;2023-06-26T06:11:11;18.60;97.50
14122;DHT22;7139;48.114;11.442;2023-06-26T06:13:38;18.80;97.40
14122;DHT22;7139;48.114;11.442;2023-06-26T06:16:06;18.90;97.20
14122;DHT22;7139;48.114;11.442;2023-06-26T06:18:33;19.10;96.90
14122;DHT22;7139;48.114;11.442;2023-06-26T06:21:00;19.20;96.30
14122;DHT22;7139;48.114;11.442;2023-06-26T06:23:27;19.30;96.10
14122;DHT22;7139;48.114;11.442;2023-06-26T06:25:54;19.40;95.50
14122;DHT22;7139;48.114;11.442;2023-06-26T06:28:21;19.60;94.80
14122;DHT22;7139;48.114;11.442;2023-06-26T06:30:47;19.80;94.30
14122;DHT22;7139;48.114;11.442;2023-06-26T06:33:15;20.00;93.90
14122;DHT22;7139;48.114;11.442;2023-06-26T06:35:42;20.10;93.90
14122;DHT22;7139;48.114;11.442;2023-06-26T06:38:10;20.20;93.40
14122;DHT22;7139;48.114;11.442;2023-06-26T06:40:36;20.30;93.30
14122;DHT22;7139;48.114;11.442;2023-06-26T06:43:03;20.40;93.60
14122;DHT22;7139;48.114;11.442;2023-06-26T06:45:30;20.50;93.30
14122;DHT22;7139;48.114;11.442;2023-06-26T06:47:56;20.60;93.10
14122;DHT22;7139;48.114;11.442;2023-06-26T06:50:25;20.70;93.30
14122;DHT22;7139;48.114;11.442;2023-06-26T06:52:51;20.90;92.70
14122;DHT22;7139;48.114;11.442;2023-06-26T06:55:18;21.10;92.10
14122;DHT22;7139;48.114;11.442;2023-06-26T06:57:45;21.20;92.30
14122;DHT22;7139;48.114;11.442;2023-06-26T07:00:13;21.50;91.10
14122;DHT22;7139;48.114;11.442;2023-06-26T07:02:42;21.70;90.60
14122;DHT22;7139;48.114;11.442;2023-06-26T07:05:09;21.90;90.20
14122;DHT22;7139;48.114;11.442;2023-06-26T07:07:38;22.10;89.90
14122;DHT22;7139;48.114;11.442;2023-06-26T07:10:07;22.30;88.00
14122;DHT22;7139;48.114;11.442;2023-06-26T07:12:34;22.50;87.30
14122;DHT22;7139;48.114;11.442;2023-06-26T07:15:01;22.70;87.20
14122;DHT22;7139;48.114;11.442;2023-06-26T07:17:29;22.90;86.40
14122;DHT22;7139;48.114;11.442;2023-06-26T07:19:56;23.00;85.60
14122;DHT22;7139;48.114;11.442;2023-06-26T07:22:23;23.20;85.20
14122;DHT22;7139;48.114;11.442;2023-06-26T07:24:51;23.30;85.40
14122;DHT22;7139;48.114;11.442;2023-06-26T07:27:18;23.40;86.00
14122;DHT22;7139;48.114;11.442;2023-06-26T07:29:45;23.50;82.80
14122;DHT22;7139;48.114;11.442;2023-06-26T07:32:12;23.60;82.90
14122;DHT22;7139;48.114;11.442;2023-06-26T07:34:38;23.80;82.80
14122;DHT22;7139;48.114;11.442;2023-06-26T07:37:05;23.90;83.20
14122;DHT22;7139;48.114;11.442;2023-06-26T07:39:32;24.10;82.60
14122;DHT22;7139;48.114;11.442;2023-06-26T07:42:00;24.20;83.10
14122;DHT22;7139;48.114;11.442;2023-06-26T07:44:27;24.40;82.00
14122;DHT22;7139;48.114;11.442;2023-06-26T07:46:53;24.50;83.00
14122;DHT22;7139;48.114;11.442;2023-06-26T07:49:20;24.60;81.90
14122;DHT22;7139;48.114;11.442;2023-06-26T07:51:47;24.70;81.30
14122;DHT22;7139;48.114;11.442;2023-06-26T07:54:14;24.80;81.10
14122;DHT22;7139;48.114;11.442;2023-06-26T07:56:52;24.80;80.40
14122;DHT22;7139;48.114;11.442;2023-06-26T07:59:21;25.00;82.40
14122;DHT22;7139;48.114;11.442;2023-06-26T08:01:48;25.20;80.30
14122;DHT22;7139;48.114;11.442;2023-06-26T08:04:15;25.30;80.20
14122;DHT22;7139;48.114;11.442;2023-06-26T08:06:42;25.40;80.40
14122;DHT22;7139;48.114;11.442;2023-06-26T08:09:09;25.60;80.70
14122;DHT22;7139;48.114;11.442;2023-06-26T08:11:36;25.70;79.60
14122;DHT22;7139;48.114;11.442;2023-06-26T08:14:03;25.70;79.60
14122;DHT22;7139;48.114;11.442;2023-06-26T08:16:31;25.80;79.60
14122;DHT22;7139;48.114;11.442;2023-06-26T08:18:58;25.90;80.10
14122;DHT22;7139;48.114;11.442;2023-06-26T08:21:25;26.00;79.10
14122;DHT22;7139;48.114;11.442;2023-06-26T08:23:52;26.20;78.50
14122;DHT22;7139;48.114;11.442;2023-06-26T08:26:18;26.30;77.70
14122;DHT22;7139;48.114;11.442;2023-06-26T08:28:45;26.40;77.50
14122;DHT22;7139;48.114;11.442;2023-06-26T08:31:12;26.60;77.50
14122;DHT22;7139;48.114;11.442;2023-06-26T08:33:40;26.70;78.60
14122;DHT22;7139;48.114;11.442;2023-06-26T08:36:07;26.80;76.60
14122;DHT22;7139;48.114;11.442;2023-06-26T08:38:33;26.90;76.80
14122;DHT22;7139;48.114;11.442;2023-06-26T08:41:00;27.00;77.90
14122;DHT22;7139;48.114;11.442;2023-06-26T08:43:27;27.10;77.10
14122;DHT22;7139;48.114;11.442;2023-06-26T08:45:54;27.20;74.50
14122;DHT22;7139;48.114;11.442;2023-06-26T08:48:21;27.30;73.90
14122;DHT22;7139;48.114;11.442;2023-06-26T08:50:49;27.40;70.70
14122;DHT22;7139;48.114;11.442;2023-06-26T08:53:23;27.50;71.90
14122;DHT22;7139;48.114;11.442;2023-06-26T08:55:52;27.60;73.40
14122;DHT22;7139;48.114;11.442;2023-06-26T08:58:20;27.70;72.80
14122;DHT22;7139;48.114;11.442;2023-06-26T09:00:47;27.80;72.80
14122;DHT22;7139;48.114;11.442;2023-06-26T09:03:15;27.90;71.90
14122;DHT22;7139;48.114;11.442;2023-06-26T09:05:42;28.00;72.00
14122;DHT22;7139;48.114;11.442;2023-06-26T09:08:10;28.00;72.60
14122;DHT22;7139;48.114;11.442;2023-06-26T09:10:39;28.00;73.50
14122;DHT22;7139;48.114;11.442;2023-06-26T09:13:06;28.00;72.30
14122;DHT22;7139;48.114;11.442;2023-06-26T09:15:37;27.90;70.40
14122;DHT22;7139;48.114;11.442;2023-06-26T09:18:05;27.90;69.80
14122;DHT22;7139;48.114;11.442;2023-06-26T09:20:33;28.00;67.90
14122;DHT22;7139;48.114;11.442;2023-06-26T09:23:00;28.10;66.00
14122;DHT22;7139;48.114;11.442;2023-06-26T09:25:29;28.20;66.40
14122;DHT22;7139;48.114;11.442;2023-06-26T09:27:56;28.40;66.00
14122;DHT22;7139;48.114;11.442;2023-06-26T09:30:23;28.50;64.80
14122;DHT22;7139;48.114;11.442;2023-06-26T09:32:50;28.70;64.00
14122;DHT22;7139;48.114;11.442;2023-06-26T09:35:17;28.80;62.20
14122;DHT22;7139;48.114;11.442;2023-06-26T09:37:43;28.90;62.80
14122;DHT22;7139;48.114;11.442;2023-06-26T09:40:11;29.10;62.40
14122;DHT22;7139;48.114;11.442;2023-06-26T09:42:39;29.20;62.40
14122;DHT22;7139;48.114;11.442;2023-06-26T09:45:06;29.30;62.50
14122;DHT22;7139;48.114;11.442;2023-06-26T09:47:34;29.30;61.30
14122;DHT22;7139;48.114;11.442;2023-06-26T09:50:03;29.30;62.40
14122;DHT22;7139;48.114;11.442;2023-06-26T09:52:31;29.30;60.90
14122;DHT22;7139;48.114;11.442;2023-06-26T09:55:09;29.30;60.20
14122;DHT22;7139;48.114;11.442;2023-06-26T09:57:37;29.50;61.10
14122;DHT22;7139;48.114;11.442;2023-06-26T10:00:06;29.60;62.40
14122;DHT22;7139;48.114;11.442;2023-06-26T10:02:35;29.80;62.00
14122;DHT22;7139;48.114;11.442;2023-06-26T10:05:02;30.00;63.70
14122;DHT22;7139;48.114;11.442;2023-06-26T10:07:29;29.90;58.70
14122;DHT22;7139;48.114;11.442;2023-06-26T10:09:56;29.50;58.90
14122;DHT22;7139;48.114;11.442;2023-06-26T10:12:28;29.30;60.80
14122;DHT22;7139;48.114;11.442;2023-06-26T10:14:57;29.20;58.80
14122;DHT22;7139;48.114;11.442;2023-06-26T10:17:28;29.10;58.30
14122;DHT22;7139;48.114;11.442;2023-06-26T10:19:58;29.10;59.20
14122;DHT22;7139;48.114;11.442;2023-06-26T10:22:30;29.20;59.30
14122;DHT22;7139;48.114;11.442;2023-06-26T10:24:59;29.20;59.00
14122;DHT22;7139;48.114;11.442;2023-06-26T10:27:29;29.10;59.40
14122;DHT22;7139;48.114;11.442;2023-06-26T10:30:02;29.30;60.00
14122;DHT22;7139;48.114;11.442;2023-06-26T10:32:31;29.60;60.50
14122;DHT22;7139;48.114;11.442;2023-06-26T10:34:58;29.90;58.80
14122;DHT22;7139;48.114;11.442;2023-06-26T10:37:44;30.00;58.90
14122;DHT22;7139;48.114;11.442;2023-06-26T10:40:11;30.20;57.70
14122;DHT22;7139;48.114;11.442;2023-06-26T10:42:39;30.00;57.40
14122;DHT22;7139;48.114;11.442;2023-06-26T10:45:14;29.90;57.90
14122;DHT22;7139;48.114;11.442;2023-06-26T10:47:45;29.90;58.70
14122;DHT22;7139;48.114;11.442;2023-06-26T10:50:20;30.00;57.90
14122;DHT22;7139;48.114;11.442;2023-06-26T10:53:11;30.10;56.90
14122;DHT22;7139;48.114;11.442;2023-06-26T10:55:42;30.10;57.40
14122;DHT22;7139;48.114;11.442;2023-06-26T10:58:30;30.30;58.20
14122;DHT22;7139;48.114;11.442;2023-06-26T11:01:22;30.40;57.70
14122;DHT22;7139;48.114;11.442;2023-06-26T11:04:03;30.60;57.00
14122;DHT22;7139;48.114;11.442;2023-06-26T11:06:31;30.70;56.50
14122;DHT22;7139;48.114;11.442;2023-06-26T11:09:00;30.70;56.00
14122;DHT22;7139;48.114;11.442;2023-06-26T11:11:54;30.90;56.20
14122;DHT22;7139;48.114;11.442;2023-06-26T11:14:25;31.00;56.20
14122;DHT22;7139;48.114;11.442;2023-06-26T11:16:52;31.00;55.40
14122;DHT22;7139;48.114;11.442;2023-06-26T11:19:23;31.00;56.60
14122;DHT22;7139;48.114;11.442;2023-06-26T11:21:52;31.00;55.80
14122;DHT22;7139;48.114;11.442;2023-06-26T11:24:19;31.10;56.00
14122;DHT22;7139;48.114;11.442;2023-06-26T11:26:46;31.30;56.20
14122;DHT22;7139;48.114;11.442;2023-06-26T11:29:13;31.40;56.30
14122;DHT22;7139;48.114;11.442;2023-06-26T11:31:41;31.20;54.40
14122;DHT22;7139;48.114;11.442;2023-06-26T11:34:10;31.20;55.30
14122;DHT22;7139;48.114;11.442;2023-06-26T11:36:39;31.10;57.60
14122;DHT22;7139;48.114;11.442;2023-06-26T11:39:08;31.20;57.70
14122;DHT22;7139;48.114;11.442;2023-06-26T11:41:36;31.40;57.10
14122;DHT22;7139;48.114;11.442;2023-06-26T11:44:05;31.50;57.00
14122;DHT22;7139;48.114;11.442;2023-06-26T11:46:33;31.40;55.60
14122;DHT22;7139;48.114;11.442;2023-06-26T11:49:02;30.90;55.40
14122;DHT22;7139;48.114;11.442;2023-06-26T11:51:29;30.70;56.70
14122;DHT22;7139;48.114;11.442;2023-06-26T11:53:57;30.80;55.20
14122;DHT22;7139;48.114;11.442;2023-06-26T11:56:24;31.00;55.40
14122;DHT22;7139;48.114;11.442;2023-06-26T11:58:58;31.00;56.80
14122;DHT22;7139;48.114;11.442;2023-06-26T12:01:27;31.00;56.50
14122;DHT22;7139;48.114;11.442;2023-06-26T12:03:59;31.30;57.70
14122;DHT22;7139;48.114;11.442;2023-06-26T12:06:27;31.50;55.30
14122;DHT22;7139;48.114;11.442;2023-06-26T12:08:54;31.60;53.80
14122;DHT22;7139;48.114;11.442;2023-06-26T12:11:23;31.70;55.30
14122;DHT22;7139;48.114;11.442;2023-06-26T12:13:51;31.70;54.00
14122;DHT22;7139;48.114;11.442;2023-06-26T12:16:19;31.90;54.70
14122;DHT22;7139;48.114;11.442;2023-06-26T12:18:46;31.80;53.80
14122;DHT22;7139;48.114;11.442;2023-06-26T12:21:28;31.80;54.60
14122;DHT22;7139;48.114;11.442;2023-06-26T12:23:58;31.50;54.20
14122;DHT22;7139;48.114;11.442;2023-06-26T12:26:27;31.30;55.00
14122;DHT22;7139;48.114;11.442;2023-06-26T12:29:01;31.20;54.80
14122;DHT22;7139;48.114;11.442;2023-06-26T12:31:28;31.40;56.40
14122;DHT22;7139;48.114;11.442;2023-06-26T12:33:55;31.50;54.50
14122;DHT22;7139;48.114;11.442;2023-06-26T12:36:21;31.70;56.00
14122;DHT22;7139;48.114;11.442;2023-06-26T12:38:49;31.70;55.30
14122;DHT22;7139;48.114;11.442;2023-06-26T12:41:16;31.40;54.20
14122;DHT22;7139;48.114;11.442;2023-06-26T12:43:44;31.30;54.90
14122;DHT22;7139;48.114;11.442;2023-06-26T12:46:11;31.40;55.30
14122;DHT22;7139;48.114;11.442;2023-06-26T12:48:38;31.40;54.20
14122;DHT22;7139;48.114;11.442;2023-06-26T12:51:09;31.60;54.60
14122;DHT22;7139;48.114;11.442;2023-06-26T12:53:37;31.70;54.10
14122;DHT22;7139;48.114;11.442;2023-06-26T12:56:05;31.60;52.90
14122;DHT22;7139;48.114;11.442;2023-06-26T12:58:32;31.10;53.60
14122;DHT22;7139;48.114;11.442;2023-06-26T13:01:02;30.80;54.30
14122;DHT22;7139;48.114;11.442;2023-06-26T13:03:29;30.50;55.90
14122;DHT22;7139;48.114;11.442;2023-06-26T13:05:56;30.30;55.70
14122;DHT22;7139;48.114;11.442;2023-06-26T13:08:23;30.10;56.30
14122;DHT22;7139;48.114;11.442;2023-06-26T13:10:49;30.20;57.70
14122;DHT22;7139;48.114;11.442;2023-06-26T13:13:16;30.60;59.10
14122;DHT22;7139;48.114;11.442;2023-06-26T13:15:43;30.90;57.90
14122;DHT22;7139;48.114;11.442;2023-06-26T13:18:11;30.80;57.40
14122;DHT22;7139;48.114;11.442;2023-06-26T13:20:38;30.60;57.00
14122;DHT22;7139;48.114;11.442;2023-06-26T13:23:04;30.60;57.20
14122;DHT22;7139;48.114;11.442;2023-06-26T13:25:32;30.40;57.10
14122;DHT22;7139;48.114;11.442;2023-06-26T13:27:59;30.60;57.90
14122;DHT22;7139;48.114;11.442;2023-06-26T13:30:26;30.70;57.60
14122;DHT22;7139;48.114;11.442;2023-06-26T13:32:53;30.70;56.70
14122;DHT22;7139;48.114;11.442;2023-06-26T13:35:21;30.70;56.50
14122;DHT22;7139;48.114;11.442;2023-06-26T13:37:48;30.50;55.90
14122;DHT22;7139;48.114;11.442;2023-06-26T13:40:15;30.30;56.20
14122;DHT22;7139;48.114;11.442;2023-06-26T13:42:42;30.10;58.00
14122;DHT22;7139;48.114;11.442;2023-06-26T13:45:10;29.90;57.90
14122;DHT22;7139;48.114;11.442;2023-06-26T13:47:37;29.80;57.50
14122;DHT22;7139;48.114;11.442;2023-06-26T13:50:07;29.70;58.30
14122;DHT22;7139;48.114;11.442;2023-06-26T13:52:35;29.70;58.10
14122;DHT22;7139;48.114;11.442;2023-06-26T13:55:02;29.90;58.70
14122;DHT22;7139;48.114;11.442;2023-06-26T13:57:30;30.10;59.00
14122;DHT22;7139;48.114;11.442;2023-06-26T13:59:57;30.40;58.80
14122;DHT22;7139;48.114;11.442;2023-06-26T14:02:24;30.40;59.40
14122;DHT22;7139;48.114;11.442;2023-06-26T14:04:52;30.40;58.60
14122;DHT22;7139;48.114;11.442;2023-06-26T14:07:18;30.40;58.10
14122;DHT22;7139;48.114;11.442;2023-06-26T14:09:46;30.50;58.00
14122;DHT22;7139;48.114;11.442;2023-06-26T14:12:13;30.70;57.30
14122;DHT22;7139;48.114;11.442;2023-06-26T14:14:40;30.80;57.90
14122;DHT22;7139;48.114;11.442;2023-06-26T14:17:07;30.90;58.50
14122;DHT22;7139;48.114;11.442;2023-06-26T14:19:34;30.90;56.20
14122;DHT22;7139;48.114;11.442;2023-06-26T14:22:01;30.80;55.90
14122;DHT22;7139;48.114;11.442;2023-06-26T14:24:28;30.60;57.30
14122;DHT22;7139;48.114;11.442;2023-06-26T14:26:56;30.40;56.90
14122;DHT22;7139;48.114;11.442;2023-06-26T14:29:23;30.50;56.70
14122;DHT22;7139;48.114;11.442;2023-06-26T14:31:49;30.60;57.70
14122;DHT22;7139;48.114;11.442;2023-06-26T14:34:16;30.80;56.40
14122;DHT22;7139;48.114;11.442;2023-06-26T14:36:43;30.90;55.70
14122;DHT22;7139;48.114;11.442;2023-06-26T14:39:09;31.00;56.00
14122;DHT22;7139;48.114;11.442;2023-06-26T14:41:36;31.00;55.10
14122;DHT22;7139;48.114;11.442;2023-06-26T14:44:04;31.00;55.90
14122;DHT22;7139;48.114;11.442;2023-06-26T14:46:33;31.10;56.30
14122;DHT22;7139;48.114;11.442;2023-06-26T14:49:00;31.20;54.70
14122;DHT22;7139;48.114;11.442;2023-06-26T14:51:27;31.20;53.50
14122;DHT22;7139;48.114;11.442;2023-06-26T14:53:53;31.20;54.70
14122;DHT22;7139;48.114;11.442;2023-06-26T14:56:20;31.10;55.90
14122;DHT22;7139;48.114;11.442;2023-06-26T14:58:47;31.00;55.80
14122;DHT22;7139;48.114;11.442;2023-06-26T15:01:15;31.00;55.00
14122;DHT22;7139;48.114;11.442;2023-06-26T15:03:42;31.00;54.70
14122;DHT22;7139;48.114;11.442;2023-06-26T15:06:09;31.00;54.30
14122;DHT22;7139;48.114;11.442;2023-06-26T15:08:35;31.00;56.00
14122;DHT22;7139;48.114;11.442;2023-06-26T15:11:02;30.80;55.60
14122;DHT22;7139;48.114;11.442;2023-06-26T15:13:29;30.60;55.40
14122;DHT22;7139;48.114;11.442;2023-06-26T15:15:56;30.40;55.30
14122;DHT22;7139;48.114;11.442;2023-06-26T15:18:24;30.20;55.50
14122;DHT22;7139;48.114;11.442;2023-06-26T15:20:50;30.10;56.20
14122;DHT22;7139;48.114;11.442;2023-06-26T15:23:17;29.90;56.10
14122;DHT22;7139;48.114;11.442;2023-06-26T15:25:44;29.80;56.70
14122;DHT22;7139;48.114;11.442;2023-06-26T15:28:11;29.70;56.60
14122;DHT22;7139;48.114;11.442;2023-06-26T15:30:37;29.60;57.30
14122;DHT22;7139;48.114;11.442;2023-06-26T15:33:04;29.50;57.30
14122;DHT22;7139;48.114;11.442;2023-06-26T15:35:33;29.30;57.00